createdAt,value
2023-03-18T00:00:10.029Z,12.69
2023-03-18T00:02:40.183Z,12.67
2023-03-18T00:05:08.847Z,12.71
2023-03-18T00:07:36.283Z,12.71
2023-03-18T00:10:04.270Z,12.67
2023-03-18T00:12:32.342Z,12.71
2023-03-18T00:14:59.710Z,12.72
2023-03-18T00:17:28.348Z,12.71
2023-03-18T00:19:55.133Z,12.68
2023-03-18T00:22:21.875Z,12.73
2023-03-18T00:24:49.003Z,12.70
2023-03-18T00:27:15.633Z,12.73
2023-03-18T00:29:42.182Z,12.73
2023-03-18T00:32:09.052Z,12.67
2023-03-18T00:34:35.542Z,12.69
2023-03-18T00:37:03.544Z,12.69
2023-03-18T00:39:32.843Z,12.70
2023-03-18T00:41:59.410Z,12.72
2023-03-18T00:44:26.271Z,12.65
2023-03-18T00:46:55.299Z,12.63
2023-03-18T00:49:21.848Z,12.60
2023-03-18T00:51:48.354Z,12.61
2023-03-18T00:54:18.016Z,12.63
2023-03-18T00:56:44.630Z,12.64
2023-03-18T00:59:11.746Z,12.55
2023-03-18T01:01:38.858Z,12.51
2023-03-18T01:04:06.224Z,12.42
2023-03-18T01:06:34.845Z,12.42
2023-03-18T01:09:02.532Z,12.36
2023-03-18T01:11:29.743Z,12.31
2023-03-18T01:13:57.019Z,12.26
2023-03-18T01:16:24.124Z,12.22
2023-03-18T01:18:52.259Z,12.20
2023-03-18T01:21:19.548Z,12.19
2023-03-18T01:23:51.583Z,12.17
2023-03-18T01:26:18.206Z,12.10
2023-03-18T01:28:47.199Z,12.01
2023-03-18T01:31:15.197Z,12.01
2023-03-18T01:33:43.164Z,12.09
2023-03-18T01:36:10.509Z,12.07
2023-03-18T01:38:37.901Z,12.03
2023-03-18T01:41:11.816Z,11.95
2023-03-18T01:43:41.082Z,11.97
2023-03-18T01:46:29.500Z,11.97
2023-03-18T01:48:56.786Z,11.89
2023-03-18T01:51:24.329Z,11.86
2023-03-18T01:53:52.359Z,11.77
2023-03-18T01:56:20.569Z,11.80
2023-03-18T01:58:51.105Z,11.78
2023-03-18T02:01:47.442Z,11.82
2023-03-18T02:04:18.308Z,11.78
2023-03-18T02:06:45.546Z,11.69
2023-03-18T02:09:12.426Z,11.78
2023-03-18T02:11:42.755Z,11.76
2023-03-18T02:14:11.462Z,11.75
2023-03-18T02:16:45.340Z,11.69
2023-03-18T02:19:23.040Z,11.69
2023-03-18T02:22:11.392Z,11.68
2023-03-18T02:25:02.427Z,11.67
2023-03-18T02:27:32.939Z,11.62
2023-03-18T02:30:04.855Z,11.58
2023-03-18T02:32:35.676Z,11.55
2023-03-18T02:35:06.477Z,11.50
2023-03-18T02:37:35.130Z,11.40
2023-03-18T02:40:26.199Z,11.44
2023-03-18T02:42:53.073Z,11.43
2023-03-18T02:45:38.313Z,11.40
2023-03-18T02:48:11.714Z,11.39
2023-03-18T02:50:38.398Z,11.36
2023-03-18T02:53:05.745Z,11.28
2023-03-18T02:55:32.248Z,11.32
2023-03-18T02:57:58.745Z,11.30
2023-03-18T03:00:25.510Z,11.30
2023-03-18T03:02:52.331Z,11.26
2023-03-18T03:05:20.535Z,11.26
2023-03-18T03:07:47.228Z,11.20
2023-03-18T03:10:14.117Z,11.19
2023-03-18T03:12:42.427Z,11.13
2023-03-18T03:15:10.839Z,11.12
2023-03-18T03:17:43.226Z,11.08
2023-03-18T03:20:10.424Z,11.04
2023-03-18T03:22:37.079Z,11.02
2023-03-18T03:25:03.898Z,10.98
2023-03-18T03:27:31.020Z,10.94
2023-03-18T03:29:57.566Z,10.90
2023-03-18T03:32:24.028Z,10.90
2023-03-18T03:34:51.051Z,10.90
2023-03-18T03:37:17.897Z,10.88
2023-03-18T03:39:45.295Z,10.88
2023-03-18T03:42:11.953Z,10.77
2023-03-18T03:44:38.456Z,10.76
2023-03-18T03:47:06.468Z,10.77
2023-03-18T03:49:33.800Z,10.77
2023-03-18T03:52:00.843Z,10.75
2023-03-18T03:54:28.284Z,10.71
2023-03-18T03:56:54.775Z,10.69
2023-03-18T03:59:21.553Z,10.67
2023-03-18T04:02:08.837Z,10.65
2023-03-18T04:04:35.831Z,10.65
2023-03-18T04:07:03.207Z,10.65
2023-03-18T04:09:30.411Z,10.61
2023-03-18T04:11:57.016Z,10.61
2023-03-18T04:14:23.608Z,10.58
2023-03-18T04:16:50.287Z,10.59
2023-03-18T04:19:17.608Z,10.52
2023-03-18T04:21:44.434Z,10.58
2023-03-18T04:24:10.934Z,10.65
2023-03-18T04:26:37.969Z,10.61
2023-03-18T04:29:05.060Z,10.68
2023-03-18T04:31:32.149Z,10.67
2023-03-18T04:34:00.383Z,10.76
2023-03-18T04:36:28.269Z,10.72
2023-03-18T04:38:56.925Z,10.68
2023-03-18T04:41:24.507Z,10.72
2023-03-18T04:43:53.376Z,10.57
2023-03-18T04:46:20.920Z,10.51
2023-03-18T04:48:48.430Z,10.45
2023-03-18T04:51:15.508Z,10.26
2023-03-18T04:53:43.206Z,10.19
2023-03-18T04:56:10.966Z,10.12
2023-03-18T04:58:44.459Z,10.14
2023-03-18T05:01:16.649Z,10.06
2023-03-18T05:03:43.506Z,10.04
2023-03-18T05:06:23.207Z,10.04
2023-03-18T05:09:00.478Z,10.11
2023-03-18T05:11:32.151Z,10.05
2023-03-18T05:14:03.569Z,10.16
2023-03-18T05:16:38.632Z,10.26
2023-03-18T05:19:05.235Z,10.21
2023-03-18T05:21:33.244Z,10.27
2023-03-18T05:24:01.176Z,10.38
2023-03-18T05:26:33.830Z,10.42
2023-03-18T05:29:00.402Z,10.43
2023-03-18T05:31:38.246Z,10.45
2023-03-18T05:34:07.088Z,10.42
2023-03-18T05:36:35.627Z,10.58
2023-03-18T05:39:06.152Z,10.59
2023-03-18T05:41:32.782Z,10.53
2023-03-18T05:43:59.958Z,10.45
2023-03-18T05:46:29.001Z,10.54
2023-03-18T05:49:06.050Z,10.55
2023-03-18T05:51:42.651Z,10.54
2023-03-18T05:54:13.639Z,10.47
2023-03-18T05:56:43.573Z,10.64
2023-03-18T05:59:12.320Z,10.56
2023-03-18T06:01:49.000Z,10.56
2023-03-18T06:04:17.208Z,10.63
2023-03-18T06:06:44.185Z,10.57
2023-03-18T06:09:12.241Z,10.70
2023-03-18T06:11:41.185Z,10.61
2023-03-18T06:14:08.782Z,10.64
2023-03-18T06:16:35.810Z,10.58
2023-03-18T06:19:03.974Z,10.64
2023-03-18T06:21:32.987Z,10.67
2023-03-18T06:24:00.378Z,10.72
2023-03-18T06:26:28.409Z,10.77
2023-03-18T06:28:55.359Z,10.81
2023-03-18T06:31:24.142Z,10.94
2023-03-18T06:33:50.819Z,10.97
2023-03-18T06:36:18.264Z,10.98
2023-03-18T06:38:48.153Z,10.98
2023-03-18T06:41:14.808Z,11.01
2023-03-18T06:43:53.618Z,10.92
2023-03-18T06:46:20.215Z,10.88
2023-03-18T06:48:46.864Z,10.75
2023-03-18T06:51:18.526Z,10.65
2023-03-18T06:53:45.359Z,10.61
2023-03-18T06:56:15.705Z,10.51
2023-03-18T06:58:56.469Z,10.41
2023-03-18T07:01:23.052Z,10.39
2023-03-18T07:03:53.446Z,10.34
2023-03-18T07:06:21.079Z,10.30
2023-03-18T07:08:47.610Z,10.26
2023-03-18T07:11:14.640Z,10.25
2023-03-18T07:13:42.865Z,10.22
2023-03-18T07:16:16.764Z,10.18
2023-03-18T07:18:43.722Z,10.13
2023-03-18T07:21:11.766Z,10.12
2023-03-18T07:23:38.999Z,10.07
2023-03-18T07:26:05.450Z,10.07
2023-03-18T07:28:32.771Z,10.10
2023-03-18T07:30:59.793Z,10.14
2023-03-18T07:33:26.248Z,10.21
2023-03-18T07:35:53.289Z,10.32
2023-03-18T07:38:19.743Z,10.39
2023-03-18T07:40:46.415Z,10.47
2023-03-18T07:43:12.861Z,10.49
2023-03-18T07:45:39.295Z,10.49
2023-03-18T07:48:05.793Z,10.52
2023-03-18T07:50:32.545Z,10.59
2023-03-18T07:52:59.633Z,10.67
2023-03-18T07:55:26.142Z,10.73
2023-03-18T07:57:52.629Z,10.81
2023-03-18T08:00:19.500Z,10.85
2023-03-18T08:02:45.981Z,10.97
2023-03-18T08:05:13.638Z,11.07
2023-03-18T08:07:40.185Z,11.11
2023-03-18T08:10:08.899Z,11.14
2023-03-18T08:12:49.407Z,11.18
2023-03-18T08:15:18.838Z,11.24
2023-03-18T08:17:45.296Z,11.29
2023-03-18T08:20:12.343Z,11.31
2023-03-18T08:22:39.034Z,11.34
2023-03-18T08:25:05.831Z,11.40
2023-03-18T08:27:33.073Z,11.54
2023-03-18T08:30:02.291Z,11.66
2023-03-18T08:32:30.584Z,11.78
2023-03-18T08:34:57.855Z,11.87
2023-03-18T08:37:24.675Z,11.91
2023-03-18T08:39:51.157Z,11.99
2023-03-18T08:42:17.623Z,12.09
2023-03-18T08:44:44.051Z,12.09
2023-03-18T08:47:10.721Z,12.12
2023-03-18T08:49:37.500Z,12.14
2023-03-18T08:52:04.133Z,12.17
2023-03-18T08:54:30.971Z,12.24
2023-03-18T08:56:59.069Z,12.31
2023-03-18T08:59:25.765Z,12.37
2023-03-18T09:01:53.148Z,12.41
2023-03-18T09:04:20.219Z,12.43
2023-03-18T09:06:48.675Z,12.46
2023-03-18T09:09:15.520Z,12.48
2023-03-18T09:11:42.041Z,12.51
2023-03-18T09:14:08.796Z,12.60
2023-03-18T09:16:35.690Z,12.69
2023-03-18T09:19:02.269Z,12.75
2023-03-18T09:21:28.683Z,12.90
2023-03-18T09:23:55.331Z,13.03
2023-03-18T09:26:21.946Z,13.18
2023-03-18T09:28:48.391Z,13.20
2023-03-18T09:31:15.416Z,13.19
2023-03-18T09:33:43.215Z,13.23
2023-03-18T09:36:10.123Z,13.32
2023-03-18T09:38:37.142Z,13.37
2023-03-18T09:41:09.610Z,13.45
2023-03-18T09:44:00.661Z,13.49
2023-03-18T09:47:06.089Z,13.51
2023-03-18T09:49:40.304Z,13.56
2023-03-18T09:52:13.904Z,13.64
2023-03-18T09:54:44.633Z,13.72
2023-03-18T09:57:22.773Z,13.81
2023-03-18T09:59:54.768Z,13.85
2023-03-18T10:02:32.665Z,13.96
2023-03-18T10:05:03.103Z,14.07
2023-03-18T10:07:33.773Z,14.15
2023-03-18T10:10:34.109Z,14.18
2023-03-18T10:13:12.555Z,14.24
2023-03-18T10:15:45.426Z,14.31
2023-03-18T10:18:15.291Z,14.34
2023-03-18T10:21:06.878Z,14.38
2023-03-18T10:23:57.914Z,14.47
2023-03-18T10:26:32.137Z,14.49
2023-03-18T10:29:04.638Z,14.56
2023-03-18T10:32:12.670Z,14.61
2023-03-18T10:34:46.053Z,14.69
2023-03-18T10:37:41.110Z,14.70
2023-03-18T10:40:15.896Z,14.69
2023-03-18T10:42:42.545Z,14.71
2023-03-18T10:45:17.226Z,14.69
2023-03-18T10:47:47.166Z,14.73
2023-03-18T10:50:17.704Z,14.71
2023-03-18T10:52:57.058Z,14.74
2023-03-18T10:55:27.296Z,14.80
2023-03-18T10:57:53.723Z,14.78
2023-03-18T11:00:29.412Z,14.82
2023-03-18T11:02:57.017Z,14.90
2023-03-18T11:05:29.956Z,15.00
2023-03-18T11:07:59.976Z,15.16
2023-03-18T11:10:39.549Z,15.26
2023-03-18T11:13:06.475Z,15.26
2023-03-18T11:15:50.071Z,15.32
2023-03-18T11:18:19.966Z,15.44
2023-03-18T11:20:48.000Z,15.55
2023-03-18T11:23:17.778Z,15.65
2023-03-18T11:25:48.833Z,15.79
2023-03-18T11:28:29.069Z,15.86
2023-03-18T11:30:57.349Z,15.91
2023-03-18T11:33:27.493Z,15.99
2023-03-18T11:35:57.332Z,16.01
2023-03-18T11:38:32.485Z,16.03
2023-03-18T11:41:19.651Z,16.09
2023-03-18T11:43:56.267Z,16.17
2023-03-18T11:46:24.193Z,16.21
2023-03-18T11:48:50.796Z,16.21
2023-03-18T11:51:25.834Z,16.18
2023-03-18T11:54:34.672Z,16.18
2023-03-18T11:57:18.400Z,16.22
2023-03-18T12:00:17.571Z,16.29
2023-03-18T12:02:50.459Z,16.35
2023-03-18T12:05:52.448Z,16.37
2023-03-18T12:08:43.626Z,16.33
2023-03-18T12:11:41.479Z,16.26
2023-03-18T12:14:22.529Z,16.31
2023-03-18T12:17:07.896Z,16.40
2023-03-18T12:20:00.075Z,16.51
2023-03-18T12:22:41.860Z,16.68
2023-03-18T12:25:30.715Z,16.79
2023-03-18T12:28:02.062Z,16.86
2023-03-18T12:30:50.774Z,16.85
2023-03-18T12:33:28.960Z,16.89
2023-03-18T12:36:22.494Z,16.98
2023-03-18T12:39:16.987Z,17.02
2023-03-18T12:42:14.252Z,17.07
2023-03-18T12:44:58.968Z,17.11
2023-03-18T12:47:29.615Z,17.23
2023-03-18T12:50:06.588Z,17.34
2023-03-18T12:52:43.763Z,17.36
2023-03-18T12:55:16.088Z,17.34
2023-03-18T12:57:48.625Z,17.36
2023-03-18T13:00:29.600Z,17.35
2023-03-18T13:03:33.904Z,17.36
2023-03-18T13:06:39.244Z,17.34
2023-03-18T13:09:15.416Z,17.33
2023-03-18T13:12:07.369Z,17.41
2023-03-18T13:14:48.957Z,17.50
2023-03-18T13:17:23.839Z,17.52
2023-03-18T13:19:50.343Z,17.55
2023-03-18T13:22:45.979Z,17.57
2023-03-18T13:25:41.731Z,17.56
2023-03-18T13:28:18.444Z,17.55
2023-03-18T13:31:13.490Z,17.53
2023-03-18T13:34:06.074Z,17.54
2023-03-18T13:36:48.293Z,17.53
2023-03-18T13:39:27.142Z,17.51
2023-03-18T13:42:02.955Z,17.57
2023-03-18T13:44:37.507Z,17.61
2023-03-18T13:47:07.366Z,17.71
2023-03-18T13:49:34.152Z,17.88
2023-03-18T13:52:01.918Z,17.96
2023-03-18T13:54:34.834Z,17.97
2023-03-18T13:57:18.104Z,18.04
2023-03-18T13:59:46.698Z,18.03
2023-03-18T14:02:32.540Z,17.90
2023-03-18T14:04:59.622Z,17.81
2023-03-18T14:07:27.242Z,17.78
2023-03-18T14:10:15.355Z,17.79
2023-03-18T14:12:47.342Z,17.81
2023-03-18T14:15:44.646Z,17.81
2023-03-18T14:18:27.709Z,17.81
2023-03-18T14:20:59.645Z,17.83
2023-03-18T14:23:33.813Z,17.89
2023-03-18T14:26:23.898Z,17.89
2023-03-18T14:28:56.215Z,17.86
2023-03-18T14:31:32.836Z,17.86
2023-03-18T14:34:03.139Z,17.80
2023-03-18T14:36:54.197Z,17.70
2023-03-18T14:39:28.003Z,17.64
2023-03-18T14:41:57.726Z,17.60
2023-03-18T14:44:40.725Z,17.56
2023-03-18T14:47:35.697Z,17.47
2023-03-18T14:50:14.369Z,17.34
2023-03-18T14:52:42.616Z,17.27
2023-03-18T14:55:25.602Z,17.17
2023-03-18T14:57:52.532Z,17.11
2023-03-18T15:00:21.687Z,17.01
2023-03-18T15:02:49.760Z,16.98
2023-03-18T15:05:18.653Z,16.95
2023-03-18T15:07:50.473Z,16.95
2023-03-18T15:10:21.885Z,16.97
2023-03-18T15:13:21.655Z,16.96
2023-03-18T15:15:49.066Z,16.94
2023-03-18T15:18:34.359Z,16.92
2023-03-18T15:21:01.161Z,16.94
2023-03-18T15:23:31.926Z,16.96
2023-03-18T15:25:58.389Z,17.05
2023-03-18T15:28:26.698Z,17.17
2023-03-18T15:30:55.862Z,17.31
2023-03-18T15:33:23.440Z,17.44
2023-03-18T15:36:16.638Z,17.57
2023-03-18T15:38:48.149Z,17.59
2023-03-18T15:41:16.700Z,17.58
2023-03-18T15:43:44.829Z,17.56
2023-03-18T15:46:30.835Z,17.47
2023-03-18T15:49:00.120Z,17.38
2023-03-18T15:51:29.774Z,17.26
2023-03-18T15:54:13.589Z,17.17
2023-03-18T15:56:49.094Z,17.11
2023-03-18T15:59:28.609Z,17.09
2023-03-18T16:01:56.352Z,17.07
2023-03-18T16:04:24.165Z,17.08
2023-03-18T16:06:52.356Z,17.03
2023-03-18T16:09:23.898Z,16.97
2023-03-18T16:11:55.577Z,16.93
2023-03-18T16:14:24.169Z,16.90
2023-03-18T16:16:51.503Z,16.88
2023-03-18T16:19:28.208Z,16.87
2023-03-18T16:21:56.445Z,16.91
2023-03-18T16:24:23.544Z,16.88
2023-03-18T16:26:50.562Z,16.86
2023-03-18T16:29:22.063Z,16.84
2023-03-18T16:31:48.588Z,16.77
2023-03-18T16:34:16.238Z,16.70
2023-03-18T16:36:43.979Z,16.66
2023-03-18T16:39:25.037Z,16.66
2023-03-18T16:41:52.329Z,16.67
2023-03-18T16:44:21.089Z,16.70
2023-03-18T16:46:53.831Z,16.71
2023-03-18T16:49:23.212Z,16.75
2023-03-18T16:51:50.394Z,16.76
2023-03-18T16:54:21.024Z,16.79
2023-03-18T16:56:49.131Z,16.81
2023-03-18T16:59:15.635Z,16.77
2023-03-18T17:01:43.820Z,16.71
2023-03-18T17:04:28.432Z,16.67
2023-03-18T17:06:58.964Z,16.60
2023-03-18T17:09:26.187Z,16.54
2023-03-18T17:11:56.517Z,16.45
2023-03-18T17:14:28.405Z,16.39
2023-03-18T17:16:54.957Z,16.31
2023-03-18T17:19:22.893Z,16.21
2023-03-18T17:21:49.902Z,16.05
2023-03-18T17:24:16.342Z,15.86
2023-03-18T17:26:44.132Z,15.70
2023-03-18T17:29:23.620Z,15.53
2023-03-18T17:31:51.646Z,15.37
2023-03-18T17:34:18.086Z,15.23
2023-03-18T17:36:44.515Z,15.07
2023-03-18T17:39:10.989Z,14.90
2023-03-18T17:41:37.428Z,14.71
2023-03-18T17:44:16.912Z,14.55
2023-03-18T17:46:43.313Z,14.41
2023-03-18T17:49:11.681Z,14.32
2023-03-18T17:51:38.694Z,14.18
2023-03-18T17:54:06.060Z,14.08
2023-03-18T17:56:37.270Z,14.00
2023-03-18T17:59:29.313Z,13.94
2023-03-18T18:03:09.417Z,13.80
2023-03-18T20:09:32.673Z,12.17
2023-03-18T20:12:37.856Z,12.25
2023-03-18T20:15:05.868Z,12.28
2023-03-18T20:17:43.192Z,12.34
2023-03-18T20:20:30.632Z,12.48
2023-03-18T20:23:02.659Z,12.53
2023-03-18T20:25:34.067Z,12.49
2023-03-18T20:28:01.110Z,12.49
2023-03-18T20:30:33.092Z,12.53
2023-03-18T20:33:00.453Z,12.50
2023-03-18T20:35:28.958Z,12.53
2023-03-18T20:37:56.572Z,12.54
2023-03-18T20:40:27.641Z,12.53
2023-03-18T20:42:54.552Z,12.52
2023-03-18T20:45:22.133Z,12.52
2023-03-18T20:47:49.042Z,12.41
2023-03-18T20:50:17.859Z,12.44
2023-03-18T20:52:46.927Z,12.42
2023-03-18T20:55:24.736Z,12.38
2023-03-18T20:57:51.848Z,12.41
2023-03-18T21:00:22.925Z,12.38
2023-03-18T21:02:55.146Z,12.35
2023-03-18T21:05:22.181Z,12.40
2023-03-18T21:07:49.206Z,12.38
2023-03-18T21:10:18.606Z,12.44
2023-03-18T21:12:45.700Z,12.38
2023-03-18T21:15:17.937Z,12.36
2023-03-18T21:17:45.541Z,12.34
2023-03-18T21:20:22.155Z,12.27
2023-03-18T21:22:50.444Z,12.19
2023-03-18T21:25:19.021Z,12.18
2023-03-18T21:27:46.069Z,12.11
2023-03-18T21:30:13.733Z,12.12
2023-03-18T21:32:41.022Z,12.08
2023-03-18T21:35:14.982Z,11.96
2023-03-18T21:37:41.471Z,11.99
2023-03-18T21:40:14.983Z,11.96
2023-03-18T21:42:42.948Z,11.97
2023-03-18T21:45:17.006Z,11.95
2023-03-18T21:47:43.502Z,11.92
2023-03-18T21:50:19.437Z,11.96
2023-03-18T21:52:47.383Z,11.96
2023-03-18T21:55:14.305Z,11.95
2023-03-18T21:57:41.028Z,11.97
2023-03-18T22:00:08.714Z,11.96
2023-03-18T22:02:38.502Z,11.97
2023-03-18T22:05:11.914Z,11.92
2023-03-18T22:07:38.472Z,11.92
2023-03-18T22:10:07.267Z,11.92
2023-03-18T22:12:34.198Z,11.91
2023-03-18T22:15:00.923Z,11.84
2023-03-18T22:17:34.313Z,11.82
2023-03-18T22:20:01.619Z,11.83
2023-03-18T22:22:36.527Z,11.76
2023-03-18T22:25:03.570Z,11.66
2023-03-18T22:27:30.814Z,11.65
2023-03-18T22:29:59.113Z,11.63
2023-03-18T22:32:42.453Z,11.54
2023-03-18T22:35:20.994Z,11.47
2023-03-18T22:37:47.541Z,11.40
2023-03-18T22:40:18.175Z,11.35
2023-03-18T22:42:46.869Z,11.29
2023-03-18T22:45:22.751Z,11.27
2023-03-18T22:47:50.843Z,11.22
2023-03-18T22:50:17.672Z,11.24
2023-03-18T22:52:44.621Z,11.21
2023-03-18T22:55:22.189Z,11.10
2023-03-18T22:57:49.322Z,11.07
2023-03-18T23:00:33.424Z,11.03
2023-03-18T23:02:59.991Z,11.04
2023-03-18T23:05:27.277Z,11.03
2023-03-18T23:07:54.004Z,11.06
2023-03-18T23:10:20.916Z,11.13
2023-03-18T23:12:48.305Z,11.17
2023-03-18T23:15:20.662Z,11.26
2023-03-18T23:17:47.777Z,11.29
2023-03-18T23:20:16.653Z,11.32
2023-03-18T23:22:45.091Z,11.31
2023-03-18T23:25:16.413Z,11.35
2023-03-18T23:27:43.054Z,11.35
2023-03-18T23:30:12.365Z,11.34
2023-03-18T23:32:39.389Z,11.30
2023-03-18T23:35:07.219Z,11.24
2023-03-18T23:37:34.031Z,11.28
2023-03-18T23:40:00.542Z,11.28
2023-03-18T23:42:27.122Z,11.29
2023-03-18T23:44:53.606Z,11.31
2023-03-18T23:47:20.331Z,11.29
2023-03-18T23:49:46.826Z,11.24
2023-03-18T23:52:14.614Z,11.20
2023-03-18T23:54:41.490Z,11.10
2023-03-18T23:57:09.106Z,11.07
2023-03-18T23:59:35.763Z,11.01
